sensor_id;sensor_type;location;lat;lon;timestamp;P1;durP1;ratioP1;P2;durP2;ratioP2
49384;SDS011;36795;45.028;38.968;2022-07-05T00:00:49;51.20;;;31.87;;
49384;SDS011;36795;45.028;38.968;2022-07-05T00:03:36;51.63;;;28.55;;
49384;SDS011;36795;45.028;38.968;2022-07-05T00:06:22;51.53;;;27.45;;
49384;SDS011;36795;45.028;38.968;2022-07-05T00:09:08;43.28;;;26.00;;
49384;SDS011;36795;45.028;38.968;2022-07-05T00:11:54;68.80;;;31.00;;
49384;SDS011;36795;45.028;38.968;2022-07-05T00:14:44;45.05;;;26.17;;
49384;SDS011;36795;45.028;38.968;2022-07-05T00:17:30;46.55;;;26.50;;
49384;SDS011;36795;45.028;38.968;2022-07-05T00:20:17;44.58;;;27.95;;
49384;SDS011;36795;45.028;38.968;2022-07-05T00:23:03;48.67;;;26.33;;
49384;SDS011;36795;45.028;38.968;2022-07-05T00:25:49;43.58;;;26.75;;
49384;SDS011;36795;45.028;38.968;2022-07-05T00:28:35;45.63;;;26.83;;
49384;SDS011;36795;45.028;38.968;2022-07-05T00:31:21;48.50;;;27.50;;
49384;SDS011;36795;45.028;38.968;2022-07-05T00:34:07;52.17;;;28.20;;
49384;SDS011;36795;45.028;38.968;2022-07-05T00:36:54;45.10;;;27.40;;
49384;SDS011;36795;45.028;38.968;2022-07-05T00:39:40;44.85;;;28.38;;
49384;SDS011;36795;45.028;38.968;2022-07-05T00:42:26;48.90;;;27.33;;
49384;SDS011;36795;45.028;38.968;2022-07-05T00:45:13;42.97;;;27.75;;
49384;SDS011;36795;45.028;38.968;2022-07-05T00:47:59;41.22;;;27.45;;
49384;SDS011;36795;45.028;38.968;2022-07-05T00:50:45;44.40;;;27.85;;
49384;SDS011;36795;45.028;38.968;2022-07-05T00:53:32;45.40;;;28.67;;
49384;SDS011;36795;45.028;38.968;2022-07-05T00:56:18;49.28;;;27.67;;
49384;SDS011;36795;45.028;38.968;2022-07-05T00:59:05;50.90;;;28.98;;
49384;SDS011;36795;45.028;38.968;2022-07-05T01:01:51;41.65;;;26.70;;
49384;SDS011;36795;45.028;38.968;2022-07-05T01:04:38;46.30;;;26.83;;
49384;SDS011;36795;45.028;38.968;2022-07-05T01:07:24;44.05;;;28.25;;
49384;SDS011;36795;45.028;38.968;2022-07-05T01:10:11;43.05;;;26.95;;
49384;SDS011;36795;45.028;38.968;2022-07-05T01:12:57;40.17;;;25.77;;
49384;SDS011;36795;45.028;38.968;2022-07-05T01:15:43;48.95;;;26.95;;
49384;SDS011;36795;45.028;38.968;2022-07-05T01:18:29;43.92;;;27.15;;
49384;SDS011;36795;45.028;38.968;2022-07-05T01:21:17;43.33;;;26.98;;
49384;SDS011;36795;45.028;38.968;2022-07-05T01:24:07;41.08;;;26.48;;
49384;SDS011;36795;45.028;38.968;2022-07-05T01:26:54;44.38;;;26.65;;
49384;SDS011;36795;45.028;38.968;2022-07-05T01:29:41;47.95;;;27.00;;
49384;SDS011;36795;45.028;38.968;2022-07-05T01:32:28;47.33;;;28.30;;
49384;SDS011;36795;45.028;38.968;2022-07-05T01:35:14;46.03;;;26.80;;
49384;SDS011;36795;45.028;38.968;2022-07-05T01:38:10;43.67;;;27.30;;
49384;SDS011;36795;45.028;38.968;2022-07-05T01:40:57;41.53;;;27.52;;
49384;SDS011;36795;45.028;38.968;2022-07-05T01:43:43;40.60;;;26.25;;
49384;SDS011;36795;45.028;38.968;2022-07-05T01:46:30;41.60;;;27.23;;
49384;SDS011;36795;45.028;38.968;2022-07-05T01:49:23;48.45;;;27.80;;
49384;SDS011;36795;45.028;38.968;2022-07-05T01:52:12;45.22;;;27.87;;
49384;SDS011;36795;45.028;38.968;2022-07-05T01:55:01;44.20;;;26.45;;
49384;SDS011;36795;45.028;38.968;2022-07-05T01:57:49;44.85;;;26.75;;
49384;SDS011;36795;45.028;38.968;2022-07-05T02:00:57;41.30;;;25.77;;
49384;SDS011;36795;45.028;38.968;2022-07-05T02:03:43;39.85;;;25.37;;
49384;SDS011;36795;45.028;38.968;2022-07-05T02:06:30;45.97;;;24.85;;
49384;SDS011;36795;45.028;38.968;2022-07-05T02:09:18;44.38;;;26.50;;
49384;SDS011;36795;45.028;38.968;2022-07-05T02:12:05;43.67;;;24.90;;
49384;SDS011;36795;45.028;38.968;2022-07-05T02:14:51;41.22;;;26.60;;
49384;SDS011;36795;45.028;38.968;2022-07-05T02:17:38;43.50;;;26.05;;
49384;SDS011;36795;45.028;38.968;2022-07-05T02:20:24;41.65;;;25.90;;
49384;SDS011;36795;45.028;38.968;2022-07-05T02:23:11;42.35;;;25.35;;
49384;SDS011;36795;45.028;38.968;2022-07-05T02:25:58;45.10;;;25.80;;
49384;SDS011;36795;45.028;38.968;2022-07-05T02:28:44;47.20;;;25.60;;
49384;SDS011;36795;45.028;38.968;2022-07-05T02:31:32;41.75;;;23.15;;
49384;SDS011;36795;45.028;38.968;2022-07-05T02:34:21;45.35;;;24.85;;
49384;SDS011;36795;45.028;38.968;2022-07-05T02:37:07;43.22;;;24.90;;
49384;SDS011;36795;45.028;38.968;2022-07-05T02:39:54;52.20;;;24.58;;
49384;SDS011;36795;45.028;38.968;2022-07-05T02:42:40;45.08;;;23.05;;
49384;SDS011;36795;45.028;38.968;2022-07-05T02:45:27;40.38;;;22.95;;
49384;SDS011;36795;45.028;38.968;2022-07-05T02:48:13;41.22;;;24.42;;
49384;SDS011;36795;45.028;38.968;2022-07-05T02:51:00;41.47;;;24.92;;
49384;SDS011;36795;45.028;38.968;2022-07-05T02:53:46;55.85;;;25.05;;
49384;SDS011;36795;45.028;38.968;2022-07-05T02:56:33;39.65;;;21.23;;
49384;SDS011;36795;45.028;38.968;2022-07-05T02:59:19;42.25;;;22.58;;
49384;SDS011;36795;45.028;38.968;2022-07-05T03:02:05;45.10;;;24.00;;
49384;SDS011;36795;45.028;38.968;2022-07-05T03:04:51;43.22;;;25.00;;
49384;SDS011;36795;45.028;38.968;2022-07-05T03:07:37;58.65;;;26.02;;
49384;SDS011;36795;45.028;38.968;2022-07-05T03:10:24;45.92;;;23.90;;
49384;SDS011;36795;45.028;38.968;2022-07-05T03:13:11;42.33;;;24.77;;
49384;SDS011;36795;45.028;38.968;2022-07-05T03:15:58;41.10;;;24.02;;
49384;SDS011;36795;45.028;38.968;2022-07-05T03:18:44;45.63;;;23.12;;
49384;SDS011;36795;45.028;38.968;2022-07-05T03:21:31;44.15;;;24.80;;
49384;SDS011;36795;45.028;38.968;2022-07-05T03:24:18;43.75;;;23.85;;
49384;SDS011;36795;45.028;38.968;2022-07-05T03:27:04;43.22;;;22.83;;
49384;SDS011;36795;45.028;38.968;2022-07-05T03:29:50;43.95;;;22.45;;
49384;SDS011;36795;45.028;38.968;2022-07-05T03:32:36;40.50;;;23.77;;
49384;SDS011;36795;45.028;38.968;2022-07-05T03:35:23;40.40;;;22.98;;
49384;SDS011;36795;45.028;38.968;2022-07-05T03:38:12;41.03;;;22.45;;
49384;SDS011;36795;45.028;38.968;2022-07-05T03:40:58;38.65;;;21.95;;
49384;SDS011;36795;45.028;38.968;2022-07-05T03:43:45;40.50;;;23.08;;
49384;SDS011;36795;45.028;38.968;2022-07-05T03:46:32;39.08;;;22.55;;
49384;SDS011;36795;45.028;38.968;2022-07-05T03:49:18;40.05;;;23.00;;
49384;SDS011;36795;45.028;38.968;2022-07-05T03:52:05;45.15;;;23.15;;
49384;SDS011;36795;45.028;38.968;2022-07-05T03:54:51;45.92;;;24.02;;
49384;SDS011;36795;45.028;38.968;2022-07-05T03:57:38;40.78;;;23.62;;
49384;SDS011;36795;45.028;38.968;2022-07-05T04:00:25;38.83;;;21.67;;
49384;SDS011;36795;45.028;38.968;2022-07-05T04:03:12;37.20;;;21.00;;
49384;SDS011;36795;45.028;38.968;2022-07-05T04:05:58;45.53;;;21.08;;
49384;SDS011;36795;45.028;38.968;2022-07-05T04:08:45;34.28;;;20.42;;
49384;SDS011;36795;45.028;38.968;2022-07-05T04:11:32;39.92;;;22.20;;
49384;SDS011;36795;45.028;38.968;2022-07-05T04:14:20;35.22;;;22.25;;
49384;SDS011;36795;45.028;38.968;2022-07-05T04:17:06;37.95;;;21.60;;
49384;SDS011;36795;45.028;38.968;2022-07-05T04:19:53;41.28;;;20.90;;
49384;SDS011;36795;45.028;38.968;2022-07-05T04:22:39;40.17;;;21.33;;
49384;SDS011;36795;45.028;38.968;2022-07-05T04:25:25;39.60;;;21.27;;
49384;SDS011;36795;45.028;38.968;2022-07-05T04:28:12;42.95;;;21.45;;
49384;SDS011;36795;45.028;38.968;2022-07-05T04:30:59;42.40;;;21.87;;
49384;SDS011;36795;45.028;38.968;2022-07-05T04:33:45;39.80;;;20.73;;
49384;SDS011;36795;45.028;38.968;2022-07-05T04:36:33;35.63;;;20.90;;
49384;SDS011;36795;45.028;38.968;2022-07-05T04:39:19;37.88;;;20.60;;
49384;SDS011;36795;45.028;38.968;2022-07-05T04:42:08;36.65;;;20.33;;
49384;SDS011;36795;45.028;38.968;2022-07-05T04:44:54;36.83;;;19.37;;
49384;SDS011;36795;45.028;38.968;2022-07-05T04:47:44;34.88;;;19.98;;
49384;SDS011;36795;45.028;38.968;2022-07-05T04:50:30;35.72;;;19.58;;
49384;SDS011;36795;45.028;38.968;2022-07-05T04:53:17;37.22;;;19.37;;
49384;SDS011;36795;45.028;38.968;2022-07-05T04:56:03;39.03;;;20.48;;
49384;SDS011;36795;45.028;38.968;2022-07-05T04:58:52;39.00;;;19.75;;
49384;SDS011;36795;45.028;38.968;2022-07-05T05:01:38;36.30;;;20.58;;
49384;SDS011;36795;45.028;38.968;2022-07-05T05:04:24;37.08;;;21.02;;
49384;SDS011;36795;45.028;38.968;2022-07-05T05:07:10;37.25;;;20.35;;
49384;SDS011;36795;45.028;38.968;2022-07-05T05:09:56;39.40;;;19.98;;
49384;SDS011;36795;45.028;38.968;2022-07-05T05:12:42;37.53;;;20.52;;
49384;SDS011;36795;45.028;38.968;2022-07-05T05:15:29;41.00;;;21.23;;
49384;SDS011;36795;45.028;38.968;2022-07-05T05:18:15;38.90;;;21.25;;
49384;SDS011;36795;45.028;38.968;2022-07-05T05:21:03;36.20;;;20.88;;
49384;SDS011;36795;45.028;38.968;2022-07-05T05:23:49;32.97;;;19.15;;
49384;SDS011;36795;45.028;38.968;2022-07-05T05:26:35;33.65;;;19.75;;
49384;SDS011;36795;45.028;38.968;2022-07-05T05:29:21;34.63;;;19.12;;
49384;SDS011;36795;45.028;38.968;2022-07-05T05:32:08;33.85;;;18.45;;
49384;SDS011;36795;45.028;38.968;2022-07-05T05:34:53;34.05;;;18.67;;
49384;SDS011;36795;45.028;38.968;2022-07-05T05:37:47;33.20;;;18.23;;
49384;SDS011;36795;45.028;38.968;2022-07-05T05:40:36;34.10;;;18.77;;
49384;SDS011;36795;45.028;38.968;2022-07-05T05:43:28;33.05;;;18.95;;
49384;SDS011;36795;45.028;38.968;2022-07-05T05:46:14;36.22;;;18.67;;
49384;SDS011;36795;45.028;38.968;2022-07-05T05:49:01;38.30;;;17.83;;
49384;SDS011;36795;45.028;38.968;2022-07-05T05:51:47;36.88;;;17.77;;
49384;SDS011;36795;45.028;38.968;2022-07-05T05:54:33;33.97;;;17.73;;
49384;SDS011;36795;45.028;38.968;2022-07-05T05:57:18;30.10;;;16.42;;
49384;SDS011;36795;45.028;38.968;2022-07-05T06:00:06;33.53;;;16.90;;
49384;SDS011;36795;45.028;38.968;2022-07-05T06:02:56;33.70;;;16.15;;
49384;SDS011;36795;45.028;38.968;2022-07-05T06:05:43;29.37;;;15.60;;
49384;SDS011;36795;45.028;38.968;2022-07-05T06:08:31;32.40;;;16.00;;
49384;SDS011;36795;45.028;38.968;2022-07-05T06:11:34;31.85;;;14.93;;
49384;SDS011;36795;45.028;38.968;2022-07-05T06:14:21;32.72;;;16.02;;
49384;SDS011;36795;45.028;38.968;2022-07-05T06:17:07;30.45;;;16.05;;
49384;SDS011;36795;45.028;38.968;2022-07-05T06:19:53;31.45;;;15.30;;
49384;SDS011;36795;45.028;38.968;2022-07-05T06:22:40;30.75;;;15.77;;
49384;SDS011;36795;45.028;38.968;2022-07-05T06:25:28;30.20;;;15.27;;
49384;SDS011;36795;45.028;38.968;2022-07-05T06:28:20;32.47;;;14.63;;
49384;SDS011;36795;45.028;38.968;2022-07-05T06:31:06;26.40;;;13.85;;
49384;SDS011;36795;45.028;38.968;2022-07-05T06:33:53;29.58;;;14.82;;
49384;SDS011;36795;45.028;38.968;2022-07-05T06:36:38;33.92;;;14.93;;
49384;SDS011;36795;45.028;38.968;2022-07-05T06:39:25;29.42;;;15.38;;
49384;SDS011;36795;45.028;38.968;2022-07-05T06:42:11;34.45;;;15.73;;
49384;SDS011;36795;45.028;38.968;2022-07-05T06:44:57;30.60;;;14.10;;
49384;SDS011;36795;45.028;38.968;2022-07-05T06:47:43;37.08;;;16.48;;
49384;SDS011;36795;45.028;38.968;2022-07-05T06:50:30;29.90;;;14.63;;
49384;SDS011;36795;45.028;38.968;2022-07-05T06:53:18;32.70;;;15.05;;
49384;SDS011;36795;45.028;38.968;2022-07-05T06:56:04;31.23;;;14.68;;
49384;SDS011;36795;45.028;38.968;2022-07-05T06:58:50;31.52;;;14.65;;
49384;SDS011;36795;45.028;38.968;2022-07-05T07:01:37;33.05;;;14.68;;
49384;SDS011;36795;45.028;38.968;2022-07-05T07:04:23;28.20;;;14.48;;
49384;SDS011;36795;45.028;38.968;2022-07-05T07:07:09;27.15;;;14.20;;
49384;SDS011;36795;45.028;38.968;2022-07-05T07:10:14;32.53;;;14.27;;
49384;SDS011;36795;45.028;38.968;2022-07-05T07:13:00;26.92;;;13.05;;
49384;SDS011;36795;45.028;38.968;2022-07-05T07:15:46;27.60;;;14.45;;
49384;SDS011;36795;45.028;38.968;2022-07-05T07:18:33;31.62;;;12.13;;
49384;SDS011;36795;45.028;38.968;2022-07-05T07:21:20;26.42;;;12.13;;
49384;SDS011;36795;45.028;38.968;2022-07-05T07:24:07;28.75;;;12.13;;
49384;SDS011;36795;45.028;38.968;2022-07-05T07:26:53;30.60;;;11.77;;
49384;SDS011;36795;45.028;38.968;2022-07-05T07:29:49;28.98;;;11.85;;
49384;SDS011;36795;45.028;38.968;2022-07-05T07:32:35;28.92;;;11.10;;
49384;SDS011;36795;45.028;38.968;2022-07-05T07:35:21;29.67;;;11.57;;
49384;SDS011;36795;45.028;38.968;2022-07-05T07:38:07;27.58;;;11.07;;
49384;SDS011;36795;45.028;38.968;2022-07-05T07:40:54;26.95;;;11.68;;
49384;SDS011;36795;45.028;38.968;2022-07-05T07:43:40;47.80;;;22.02;;
49384;SDS011;36795;45.028;38.968;2022-07-05T07:46:27;26.77;;;12.30;;
49384;SDS011;36795;45.028;38.968;2022-07-05T07:49:13;25.50;;;12.00;;
49384;SDS011;36795;45.028;38.968;2022-07-05T07:51:59;28.92;;;11.98;;
49384;SDS011;36795;45.028;38.968;2022-07-05T07:54:45;32.10;;;11.55;;
49384;SDS011;36795;45.028;38.968;2022-07-05T07:57:31;35.80;;;13.05;;
49384;SDS011;36795;45.028;38.968;2022-07-05T08:00:17;27.62;;;11.63;;
49384;SDS011;36795;45.028;38.968;2022-07-05T08:03:04;27.70;;;10.88;;
49384;SDS011;36795;45.028;38.968;2022-07-05T08:05:50;29.08;;;10.20;;
49384;SDS011;36795;45.028;38.968;2022-07-05T08:08:40;27.55;;;10.30;;
49384;SDS011;36795;45.028;38.968;2022-07-05T08:11:27;27.87;;;10.20;;
49384;SDS011;36795;45.028;38.968;2022-07-05T08:14:17;24.65;;;9.13;;
49384;SDS011;36795;45.028;38.968;2022-07-05T08:17:04;27.98;;;11.10;;
49384;SDS011;36795;45.028;38.968;2022-07-05T08:19:53;27.40;;;10.77;;
49384;SDS011;36795;45.028;38.968;2022-07-05T08:22:58;26.90;;;9.30;;
49384;SDS011;36795;45.028;38.968;2022-07-05T08:25:44;27.00;;;9.18;;
49384;SDS011;36795;45.028;38.968;2022-07-05T08:28:30;24.80;;;8.93;;
49384;SDS011;36795;45.028;38.968;2022-07-05T08:31:17;23.20;;;9.13;;
49384;SDS011;36795;45.028;38.968;2022-07-05T08:34:03;24.33;;;9.75;;
49384;SDS011;36795;45.028;38.968;2022-07-05T08:36:50;27.85;;;9.68;;
49384;SDS011;36795;45.028;38.968;2022-07-05T08:39:36;28.17;;;9.75;;
49384;SDS011;36795;45.028;38.968;2022-07-05T08:42:22;27.30;;;10.80;;
49384;SDS011;36795;45.028;38.968;2022-07-05T08:45:10;24.73;;;10.18;;
49384;SDS011;36795;45.028;38.968;2022-07-05T08:47:58;23.75;;;9.75;;
49384;SDS011;36795;45.028;38.968;2022-07-05T08:50:46;28.10;;;10.88;;
49384;SDS011;36795;45.028;38.968;2022-07-05T08:53:36;26.05;;;10.98;;
49384;SDS011;36795;45.028;38.968;2022-07-05T08:56:25;27.67;;;11.10;;
49384;SDS011;36795;45.028;38.968;2022-07-05T08:59:12;28.85;;;11.35;;
49384;SDS011;36795;45.028;38.968;2022-07-05T09:01:57;27.20;;;11.12;;
49384;SDS011;36795;45.028;38.968;2022-07-05T09:04:46;29.85;;;11.55;;
49384;SDS011;36795;45.028;38.968;2022-07-05T09:07:36;28.87;;;11.25;;
49384;SDS011;36795;45.028;38.968;2022-07-05T09:10:28;35.88;;;11.27;;
49384;SDS011;36795;45.028;38.968;2022-07-05T09:13:17;28.17;;;10.70;;
49384;SDS011;36795;45.028;38.968;2022-07-05T09:16:07;29.83;;;10.43;;
49384;SDS011;36795;45.028;38.968;2022-07-05T09:18:55;25.60;;;10.35;;
49384;SDS011;36795;45.028;38.968;2022-07-05T09:22:04;29.58;;;11.05;;
49384;SDS011;36795;45.028;38.968;2022-07-05T09:25:12;26.80;;;9.60;;
49384;SDS011;36795;45.028;38.968;2022-07-05T09:28:06;26.20;;;9.85;;
49384;SDS011;36795;45.028;38.968;2022-07-05T09:30:52;21.48;;;8.82;;
49384;SDS011;36795;45.028;38.968;2022-07-05T09:33:48;26.40;;;10.10;;
49384;SDS011;36795;45.028;38.968;2022-07-05T09:39:40;25.35;;;9.13;;
49384;SDS011;36795;45.028;38.968;2022-07-05T09:42:26;27.37;;;9.60;;
49384;SDS011;36795;45.028;38.968;2022-07-05T09:45:13;39.10;;;10.27;;
49384;SDS011;36795;45.028;38.968;2022-07-05T09:48:08;26.85;;;8.95;;
49384;SDS011;36795;45.028;38.968;2022-07-05T09:51:08;24.12;;;8.70;;
49384;SDS011;36795;45.028;38.968;2022-07-05T09:53:57;28.35;;;10.38;;
49384;SDS011;36795;45.028;38.968;2022-07-05T09:56:45;24.35;;;8.55;;
49384;SDS011;36795;45.028;38.968;2022-07-05T09:59:32;28.20;;;9.48;;
49384;SDS011;36795;45.028;38.968;2022-07-05T10:02:36;25.85;;;8.15;;
49384;SDS011;36795;45.028;38.968;2022-07-05T10:05:31;28.77;;;9.30;;
49384;SDS011;36795;45.028;38.968;2022-07-05T10:08:17;23.08;;;8.90;;
49384;SDS011;36795;45.028;38.968;2022-07-05T10:11:05;27.00;;;8.70;;
49384;SDS011;36795;45.028;38.968;2022-07-05T10:13:52;23.80;;;8.10;;
49384;SDS011;36795;45.028;38.968;2022-07-05T10:16:38;23.38;;;8.70;;
49384;SDS011;36795;45.028;38.968;2022-07-05T10:19:25;24.25;;;9.68;;
49384;SDS011;36795;45.028;38.968;2022-07-05T10:22:16;23.80;;;8.88;;
49384;SDS011;36795;45.028;38.968;2022-07-05T10:25:02;25.08;;;8.85;;
49384;SDS011;36795;45.028;38.968;2022-07-05T10:27:49;27.85;;;8.48;;
49384;SDS011;36795;45.028;38.968;2022-07-05T10:30:39;25.90;;;8.85;;
49384;SDS011;36795;45.028;38.968;2022-07-05T10:33:27;25.52;;;8.65;;
49384;SDS011;36795;45.028;38.968;2022-07-05T10:36:15;27.52;;;8.15;;
49384;SDS011;36795;45.028;38.968;2022-07-05T10:39:04;27.52;;;8.80;;
49384;SDS011;36795;45.028;38.968;2022-07-05T10:41:54;25.35;;;9.45;;
49384;SDS011;36795;45.028;38.968;2022-07-05T10:44:42;30.62;;;8.90;;
49384;SDS011;36795;45.028;38.968;2022-07-05T10:47:27;23.98;;;8.43;;
49384;SDS011;36795;45.028;38.968;2022-07-05T10:50:15;22.67;;;8.43;;
49384;SDS011;36795;45.028;38.968;2022-07-05T10:53:03;25.95;;;8.38;;
49384;SDS011;36795;45.028;38.968;2022-07-05T10:58:42;24.52;;;8.35;;
49384;SDS011;36795;45.028;38.968;2022-07-05T11:01:33;23.10;;;8.35;;
49384;SDS011;36795;45.028;38.968;2022-07-05T11:04:23;24.42;;;7.93;;
49384;SDS011;36795;45.028;38.968;2022-07-05T11:07:13;25.00;;;8.45;;
49384;SDS011;36795;45.028;38.968;2022-07-05T11:09:59;26.25;;;8.77;;
49384;SDS011;36795;45.028;38.968;2022-07-05T11:12:45;23.87;;;8.40;;
49384;SDS011;36795;45.028;38.968;2022-07-05T11:15:31;25.30;;;8.45;;
49384;SDS011;36795;45.028;38.968;2022-07-05T11:18:22;23.70;;;8.15;;
49384;SDS011;36795;45.028;38.968;2022-07-05T11:21:16;23.25;;;9.23;;
49384;SDS011;36795;45.028;38.968;2022-07-05T11:24:25;23.25;;;8.23;;
49384;SDS011;36795;45.028;38.968;2022-07-05T11:27:13;24.48;;;8.25;;
49384;SDS011;36795;45.028;38.968;2022-07-05T11:30:00;27.65;;;8.32;;
49384;SDS011;36795;45.028;38.968;2022-07-05T11:32:46;25.85;;;8.77;;
49384;SDS011;36795;45.028;38.968;2022-07-05T11:35:32;25.02;;;8.65;;
49384;SDS011;36795;45.028;38.968;2022-07-05T11:38:21;21.75;;;8.40;;
49384;SDS011;36795;45.028;38.968;2022-07-05T11:41:14;26.15;;;8.93;;
49384;SDS011;36795;45.028;38.968;2022-07-05T11:44:00;25.65;;;9.48;;
49384;SDS011;36795;45.028;38.968;2022-07-05T11:46:47;23.62;;;8.60;;
49384;SDS011;36795;45.028;38.968;2022-07-05T11:49:35;27.50;;;8.05;;
49384;SDS011;36795;45.028;38.968;2022-07-05T11:52:25;23.33;;;8.85;;
49384;SDS011;36795;45.028;38.968;2022-07-05T11:55:12;22.75;;;8.95;;
49384;SDS011;36795;45.028;38.968;2022-07-05T11:57:58;24.87;;;8.57;;
49384;SDS011;36795;45.028;38.968;2022-07-05T12:00:44;28.02;;;8.68;;
49384;SDS011;36795;45.028;38.968;2022-07-05T12:03:51;22.67;;;8.48;;
49384;SDS011;36795;45.028;38.968;2022-07-05T12:06:41;26.00;;;8.88;;
49384;SDS011;36795;45.028;38.968;2022-07-05T12:09:28;24.80;;;7.90;;
49384;SDS011;36795;45.028;38.968;2022-07-05T12:12:34;25.55;;;8.35;;
49384;SDS011;36795;45.028;38.968;2022-07-05T12:15:29;25.60;;;9.15;;
49384;SDS011;36795;45.028;38.968;2022-07-05T12:18:29;25.55;;;7.82;;
49384;SDS011;36795;45.028;38.968;2022-07-05T12:25:42;18.85;;;7.10;;
49384;SDS011;36795;45.028;38.968;2022-07-05T12:28:52;23.73;;;7.05;;
49384;SDS011;36795;45.028;38.968;2022-07-05T12:32:18;21.52;;;6.90;;
49384;SDS011;36795;45.028;38.968;2022-07-05T12:35:08;28.67;;;9.48;;
49384;SDS011;36795;45.028;38.968;2022-07-05T12:38:16;21.77;;;7.30;;
49384;SDS011;36795;45.028;38.968;2022-07-05T12:41:04;22.48;;;7.40;;
49384;SDS011;36795;45.028;38.968;2022-07-05T12:43:54;27.37;;;14.63;;
49384;SDS011;36795;45.028;38.968;2022-07-05T12:46:41;26.17;;;8.07;;
49384;SDS011;36795;45.028;38.968;2022-07-05T12:49:28;21.98;;;7.15;;
49384;SDS011;36795;45.028;38.968;2022-07-05T12:52:15;22.45;;;7.03;;
49384;SDS011;36795;45.028;38.968;2022-07-05T12:55:13;23.45;;;7.68;;
49384;SDS011;36795;45.028;38.968;2022-07-05T12:58:18;22.65;;;7.25;;
49384;SDS011;36795;45.028;38.968;2022-07-05T13:01:17;24.98;;;7.65;;
49384;SDS011;36795;45.028;38.968;2022-07-05T13:04:18;21.35;;;7.65;;
49384;SDS011;36795;45.028;38.968;2022-07-05T13:07:04;24.02;;;7.40;;
49384;SDS011;36795;45.028;38.968;2022-07-05T13:09:51;26.23;;;7.30;;
49384;SDS011;36795;45.028;38.968;2022-07-05T13:12:37;24.55;;;8.15;;
49384;SDS011;36795;45.028;38.968;2022-07-05T13:15:23;25.17;;;7.53;;
49384;SDS011;36795;45.028;38.968;2022-07-05T13:18:09;25.20;;;9.05;;
49384;SDS011;36795;45.028;38.968;2022-07-05T13:24:22;24.95;;;7.40;;
49384;SDS011;36795;45.028;38.968;2022-07-05T13:27:09;22.27;;;7.95;;
49384;SDS011;36795;45.028;38.968;2022-07-05T13:29:56;27.45;;;8.50;;
49384;SDS011;36795;45.028;38.968;2022-07-05T13:32:42;25.62;;;10.07;;
49384;SDS011;36795;45.028;38.968;2022-07-05T13:35:29;20.92;;;7.50;;
49384;SDS011;36795;45.028;38.968;2022-07-05T13:38:36;22.98;;;7.57;;
49384;SDS011;36795;45.028;38.968;2022-07-05T13:41:44;21.50;;;7.35;;
49384;SDS011;36795;45.028;38.968;2022-07-05T13:44:33;24.25;;;7.57;;
49384;SDS011;36795;45.028;38.968;2022-07-05T13:47:19;20.65;;;7.75;;
49384;SDS011;36795;45.028;38.968;2022-07-05T13:50:06;23.27;;;9.85;;
49384;SDS011;36795;45.028;38.968;2022-07-05T13:53:10;21.33;;;7.55;;
49384;SDS011;36795;45.028;38.968;2022-07-05T13:55:57;20.98;;;7.30;;
49384;SDS011;36795;45.028;38.968;2022-07-05T13:58:42;25.58;;;7.68;;
49384;SDS011;36795;45.028;38.968;2022-07-05T14:01:29;25.42;;;8.05;;
49384;SDS011;36795;45.028;38.968;2022-07-05T14:04:17;21.95;;;7.68;;
49384;SDS011;36795;45.028;38.968;2022-07-05T14:07:03;20.50;;;8.10;;
49384;SDS011;36795;45.028;38.968;2022-07-05T14:09:49;23.73;;;8.43;;
49384;SDS011;36795;45.028;38.968;2022-07-05T14:12:35;24.70;;;7.87;;
49384;SDS011;36795;45.028;38.968;2022-07-05T14:15:22;22.25;;;7.43;;
49384;SDS011;36795;45.028;38.968;2022-07-05T14:18:08;24.98;;;7.87;;
49384;SDS011;36795;45.028;38.968;2022-07-05T14:20:55;22.75;;;7.43;;
49384;SDS011;36795;45.028;38.968;2022-07-05T14:23:41;23.30;;;7.70;;
49384;SDS011;36795;45.028;38.968;2022-07-05T14:26:28;21.10;;;7.93;;
49384;SDS011;36795;45.028;38.968;2022-07-05T14:29:14;20.90;;;7.00;;
49384;SDS011;36795;45.028;38.968;2022-07-05T14:32:00;22.33;;;7.25;;
49384;SDS011;36795;45.028;38.968;2022-07-05T14:34:46;24.08;;;8.32;;
49384;SDS011;36795;45.028;38.968;2022-07-05T14:37:32;21.50;;;7.37;;
49384;SDS011;36795;45.028;38.968;2022-07-05T14:40:18;22.17;;;7.30;;
49384;SDS011;36795;45.028;38.968;2022-07-05T14:43:05;23.83;;;7.20;;
49384;SDS011;36795;45.028;38.968;2022-07-05T14:45:51;24.48;;;7.37;;
49384;SDS011;36795;45.028;38.968;2022-07-05T14:48:38;23.85;;;7.95;;
49384;SDS011;36795;45.028;38.968;2022-07-05T14:51:28;25.80;;;8.38;;
49384;SDS011;36795;45.028;38.968;2022-07-05T14:54:16;21.08;;;7.03;;
49384;SDS011;36795;45.028;38.968;2022-07-05T14:57:09;20.62;;;6.65;;
49384;SDS011;36795;45.028;38.968;2022-07-05T15:00:00;23.00;;;6.90;;
49384;SDS011;36795;45.028;38.968;2022-07-05T15:03:02;20.12;;;7.05;;
49384;SDS011;36795;45.028;38.968;2022-07-05T15:05:49;22.55;;;7.20;;
49384;SDS011;36795;45.028;38.968;2022-07-05T15:08:35;24.17;;;7.93;;
49384;SDS011;36795;45.028;38.968;2022-07-05T15:11:22;23.52;;;7.80;;
49384;SDS011;36795;45.028;38.968;2022-07-05T15:14:08;22.65;;;7.47;;
49384;SDS011;36795;45.028;38.968;2022-07-05T15:16:56;23.17;;;6.93;;
49384;SDS011;36795;45.028;38.968;2022-07-05T15:19:45;22.48;;;7.30;;
49384;SDS011;36795;45.028;38.968;2022-07-05T15:22:32;21.62;;;7.72;;
49384;SDS011;36795;45.028;38.968;2022-07-05T15:25:18;29.90;;;19.40;;
49384;SDS011;36795;45.028;38.968;2022-07-05T15:28:05;24.33;;;7.70;;
49384;SDS011;36795;45.028;38.968;2022-07-05T15:30:55;25.15;;;7.65;;
49384;SDS011;36795;45.028;38.968;2022-07-05T15:33:42;23.67;;;7.60;;
49384;SDS011;36795;45.028;38.968;2022-07-05T15:36:33;23.45;;;7.28;;
49384;SDS011;36795;45.028;38.968;2022-07-05T15:39:21;20.60;;;7.40;;
49384;SDS011;36795;45.028;38.968;2022-07-05T15:42:08;26.12;;;7.62;;
49384;SDS011;36795;45.028;38.968;2022-07-05T15:44:54;23.23;;;7.70;;
49384;SDS011;36795;45.028;38.968;2022-07-05T15:47:41;25.17;;;7.62;;
49384;SDS011;36795;45.028;38.968;2022-07-05T15:50:27;23.55;;;7.35;;
49384;SDS011;36795;45.028;38.968;2022-07-05T15:53:17;24.58;;;8.38;;
49384;SDS011;36795;45.028;38.968;2022-07-05T15:56:03;25.27;;;8.05;;
49384;SDS011;36795;45.028;38.968;2022-07-05T15:58:50;22.95;;;7.32;;
49384;SDS011;36795;45.028;38.968;2022-07-05T16:01:37;24.10;;;8.05;;
49384;SDS011;36795;45.028;38.968;2022-07-05T16:04:25;30.05;;;10.25;;
49384;SDS011;36795;45.028;38.968;2022-07-05T16:07:15;26.27;;;7.65;;
49384;SDS011;36795;45.028;38.968;2022-07-05T16:10:02;19.83;;;7.03;;
49384;SDS011;36795;45.028;38.968;2022-07-05T16:12:51;21.42;;;7.03;;
49384;SDS011;36795;45.028;38.968;2022-07-05T16:15:37;23.17;;;7.30;;
49384;SDS011;36795;45.028;38.968;2022-07-05T16:18:46;22.33;;;7.03;;
49384;SDS011;36795;45.028;38.968;2022-07-05T16:21:33;21.87;;;6.75;;
49384;SDS011;36795;45.028;38.968;2022-07-05T16:24:19;21.15;;;6.53;;
49384;SDS011;36795;45.028;38.968;2022-07-05T16:27:07;24.90;;;8.00;;
49384;SDS011;36795;45.028;38.968;2022-07-05T16:29:53;19.50;;;6.37;;